sensor_id;sensor_type;location;lat;lon;timestamp;temperature;humidity
19999;DHT22;10160;50.926;4.374;2022-12-20T00:00:14;13.10;99.90
19999;DHT22;10160;50.926;4.374;2022-12-20T00:02:40;13.00;99.90
19999;DHT22;10160;50.926;4.374;2022-12-20T00:05:06;12.90;99.90
19999;DHT22;10160;50.926;4.374;2022-12-20T00:07:32;12.90;99.90
19999;DHT22;10160;50.926;4.374;2022-12-20T00:09:57;13.00;99.90
19999;DHT22;10160;50.926;4.374;2022-12-20T00:12:23;12.90;99.90
19999;DHT22;10160;50.926;4.374;2022-12-20T00:14:49;12.90;99.90
19999;DHT22;10160;50.926;4.374;2022-12-20T00:17:14;12.80;99.90
19999;DHT22;10160;50.926;4.374;2022-12-20T00:19:42;12.70;99.90
19999;DHT22;10160;50.926;4.374;2022-12-20T00:22:07;12.60;99.90
19999;DHT22;10160;50.926;4.374;2022-12-20T00:24:33;12.60;99.90
19999;DHT22;10160;50.926;4.374;2022-12-20T00:26:59;12.60;99.90
19999;DHT22;10160;50.926;4.374;2022-12-20T00:29:24;12.60;99.90
19999;DHT22;10160;50.926;4.374;2022-12-20T00:31:50;12.60;99.90
19999;DHT22;10160;50.926;4.374;2022-12-20T00:34:16;12.50;99.90
19999;DHT22;10160;50.926;4.374;2022-12-20T00:36:41;12.40;99.90
19999;DHT22;10160;50.926;4.374;2022-12-20T00:39:08;12.40;99.90
19999;DHT22;10160;50.926;4.374;2022-12-20T00:41:34;12.30;99.90
19999;DHT22;10160;50.926;4.374;2022-12-20T00:44:00;12.30;99.90
19999;DHT22;10160;50.926;4.374;2022-12-20T00:46:26;12.40;99.90
19999;DHT22;10160;50.926;4.374;2022-12-20T00:48:52;12.50;99.90
19999;DHT22;10160;50.926;4.374;2022-12-20T00:51:21;12.40;99.90
19999;DHT22;10160;50.926;4.374;2022-12-20T00:53:48;12.40;99.90
19999;DHT22;10160;50.926;4.374;2022-12-20T00:56:14;12.50;99.90
19999;DHT22;10160;50.926;4.374;2022-12-20T00:58:41;12.50;99.90
19999;DHT22;10160;50.926;4.374;2022-12-20T01:01:22;12.50;99.90
19999;DHT22;10160;50.926;4.374;2022-12-20T01:03:49;12.60;99.90
19999;DHT22;10160;50.926;4.374;2022-12-20T01:06:16;12.60;99.90
19999;DHT22;10160;50.926;4.374;2022-12-20T01:08:42;12.60;99.90
19999;DHT22;10160;50.926;4.374;2022-12-20T01:11:23;12.60;99.90
19999;DHT22;10160;50.926;4.374;2022-12-20T01:13:52;12.70;99.90
19999;DHT22;10160;50.926;4.374;2022-12-20T01:16:40;12.70;99.90
19999;DHT22;10160;50.926;4.374;2022-12-20T01:19:07;12.80;99.90
19999;DHT22;10160;50.926;4.374;2022-12-20T01:21:33;12.70;99.90
19999;DHT22;10160;50.926;4.374;2022-12-20T01:23:58;12.70;99.90
19999;DHT22;10160;50.926;4.374;2022-12-20T01:26:26;12.70;99.90
19999;DHT22;10160;50.926;4.374;2022-12-20T01:28:54;12.80;99.90
19999;DHT22;10160;50.926;4.374;2022-12-20T01:31:21;12.70;99.90
19999;DHT22;10160;50.926;4.374;2022-12-20T01:33:48;12.70;99.90
19999;DHT22;10160;50.926;4.374;2022-12-20T01:36:18;12.70;99.90
19999;DHT22;10160;50.926;4.374;2022-12-20T01:38:44;12.80;99.90
19999;DHT22;10160;50.926;4.374;2022-12-20T01:41:18;12.60;99.90
19999;DHT22;10160;50.926;4.374;2022-12-20T01:43:51;12.60;99.90
19999;DHT22;10160;50.926;4.374;2022-12-20T01:46:19;12.60;99.90
19999;DHT22;10160;50.926;4.374;2022-12-20T01:51:45;12.60;99.90
19999;DHT22;10160;50.926;4.374;2022-12-20T01:54:18;12.60;99.90
19999;DHT22;10160;50.926;4.374;2022-12-20T01:56:49;12.50;99.90
19999;DHT22;10160;50.926;4.374;2022-12-20T01:59:15;12.60;99.90
19999;DHT22;10160;50.926;4.374;2022-12-20T02:01:42;12.60;99.90
19999;DHT22;10160;50.926;4.374;2022-12-20T02:04:08;12.60;99.90
19999;DHT22;10160;50.926;4.374;2022-12-20T02:06:34;12.50;99.90
19999;DHT22;10160;50.926;4.374;2022-12-20T02:09:02;12.50;99.90
19999;DHT22;10160;50.926;4.374;2022-12-20T02:14:18;12.50;99.90
19999;DHT22;10160;50.926;4.374;2022-12-20T02:16:56;12.50;99.90
19999;DHT22;10160;50.926;4.374;2022-12-20T02:30:45;12.50;99.90
19999;DHT22;10160;50.926;4.374;2022-12-20T02:33:12;12.50;99.90
19999;DHT22;10160;50.926;4.374;2022-12-20T02:35:39;12.50;99.90
19999;DHT22;10160;50.926;4.374;2022-12-20T02:38:30;12.50;99.90
19999;DHT22;10160;50.926;4.374;2022-12-20T02:41:31;12.60;99.90
19999;DHT22;10160;50.926;4.374;2022-12-20T02:44:13;12.60;99.90
19999;DHT22;10160;50.926;4.374;2022-12-20T02:47:01;12.70;99.90
19999;DHT22;10160;50.926;4.374;2022-12-20T02:49:33;12.70;99.90
19999;DHT22;10160;50.926;4.374;2022-12-20T02:52:04;12.70;99.90
19999;DHT22;10160;50.926;4.374;2022-12-20T02:54:31;12.80;99.90
19999;DHT22;10160;50.926;4.374;2022-12-20T02:57:12;12.80;99.90
19999;DHT22;10160;50.926;4.374;2022-12-20T02:59:48;12.80;99.90
19999;DHT22;10160;50.926;4.374;2022-12-20T03:02:14;12.80;99.90
19999;DHT22;10160;50.926;4.374;2022-12-20T03:04:41;12.70;99.90
19999;DHT22;10160;50.926;4.374;2022-12-20T03:07:12;12.70;99.90
19999;DHT22;10160;50.926;4.374;2022-12-20T03:09:41;12.80;99.90
19999;DHT22;10160;50.926;4.374;2022-12-20T03:12:08;12.80;99.90
19999;DHT22;10160;50.926;4.374;2022-12-20T03:14:34;12.80;99.90
19999;DHT22;10160;50.926;4.374;2022-12-20T03:16:59;12.80;99.90
19999;DHT22;10160;50.926;4.374;2022-12-20T03:19:25;12.90;99.90
19999;DHT22;10160;50.926;4.374;2022-12-20T03:21:51;12.70;99.90
19999;DHT22;10160;50.926;4.374;2022-12-20T03:24:17;12.80;99.90
19999;DHT22;10160;50.926;4.374;2022-12-20T03:26:43;12.70;99.90
19999;DHT22;10160;50.926;4.374;2022-12-20T03:29:09;12.70;99.90
19999;DHT22;10160;50.926;4.374;2022-12-20T03:31:34;12.70;99.90
19999;DHT22;10160;50.926;4.374;2022-12-20T03:34:00;12.70;99.90
19999;DHT22;10160;50.926;4.374;2022-12-20T03:36:26;12.70;99.90
19999;DHT22;10160;50.926;4.374;2022-12-20T03:38:52;12.80;99.90
19999;DHT22;10160;50.926;4.374;2022-12-20T03:41:20;12.70;99.90
19999;DHT22;10160;50.926;4.374;2022-12-20T03:43:47;12.80;99.90
19999;DHT22;10160;50.926;4.374;2022-12-20T03:46:13;12.70;99.90
19999;DHT22;10160;50.926;4.374;2022-12-20T03:48:39;12.70;99.90
19999;DHT22;10160;50.926;4.374;2022-12-20T03:51:05;12.60;99.90
19999;DHT22;10160;50.926;4.374;2022-12-20T03:53:31;12.50;99.90
19999;DHT22;10160;50.926;4.374;2022-12-20T03:55:56;12.40;99.90
19999;DHT22;10160;50.926;4.374;2022-12-20T03:58:22;12.50;99.90
19999;DHT22;10160;50.926;4.374;2022-12-20T04:00:48;12.40;99.90
19999;DHT22;10160;50.926;4.374;2022-12-20T04:03:13;12.40;99.90
19999;DHT22;10160;50.926;4.374;2022-12-20T04:05:39;12.50;99.90
19999;DHT22;10160;50.926;4.374;2022-12-20T04:08:05;12.50;99.90
19999;DHT22;10160;50.926;4.374;2022-12-20T04:10:31;12.60;99.90
19999;DHT22;10160;50.926;4.374;2022-12-20T04:12:56;12.60;99.90
19999;DHT22;10160;50.926;4.374;2022-12-20T04:15:22;12.60;99.90
19999;DHT22;10160;50.926;4.374;2022-12-20T04:17:48;12.60;99.90
19999;DHT22;10160;50.926;4.374;2022-12-20T04:20:14;12.60;99.90
19999;DHT22;10160;50.926;4.374;2022-12-20T04:22:47;12.70;99.90
19999;DHT22;10160;50.926;4.374;2022-12-20T04:25:15;12.60;99.90
19999;DHT22;10160;50.926;4.374;2022-12-20T04:27:42;12.60;99.90
19999;DHT22;10160;50.926;4.374;2022-12-20T04:30:08;12.50;99.90
19999;DHT22;10160;50.926;4.374;2022-12-20T04:32:34;12.50;99.90
19999;DHT22;10160;50.926;4.374;2022-12-20T04:35:00;12.50;99.90
19999;DHT22;10160;50.926;4.374;2022-12-20T04:37:26;12.50;99.90
19999;DHT22;10160;50.926;4.374;2022-12-20T04:39:51;12.60;99.90
19999;DHT22;10160;50.926;4.374;2022-12-20T04:42:17;12.60;99.90
19999;DHT22;10160;50.926;4.374;2022-12-20T04:44:43;12.50;99.90
19999;DHT22;10160;50.926;4.374;2022-12-20T04:47:08;12.60;99.90
19999;DHT22;10160;50.926;4.374;2022-12-20T04:49:35;12.60;99.90
19999;DHT22;10160;50.926;4.374;2022-12-20T04:52:00;12.60;99.90
19999;DHT22;10160;50.926;4.374;2022-12-20T04:54:46;12.60;99.90
19999;DHT22;10160;50.926;4.374;2022-12-20T04:57:12;12.60;99.90
19999;DHT22;10160;50.926;4.374;2022-12-20T04:59:38;12.60;99.90
19999;DHT22;10160;50.926;4.374;2022-12-20T05:02:04;12.60;99.90
19999;DHT22;10160;50.926;4.374;2022-12-20T05:04:30;12.70;99.90
19999;DHT22;10160;50.926;4.374;2022-12-20T05:06:55;12.70;99.90
19999;DHT22;10160;50.926;4.374;2022-12-20T05:09:21;12.70;99.90
19999;DHT22;10160;50.926;4.374;2022-12-20T05:11:47;12.60;99.90
19999;DHT22;10160;50.926;4.374;2022-12-20T05:14:12;12.70;99.90
19999;DHT22;10160;50.926;4.374;2022-12-20T05:16:38;12.80;99.90
19999;DHT22;10160;50.926;4.374;2022-12-20T05:19:04;12.70;99.90
19999;DHT22;10160;50.926;4.374;2022-12-20T05:21:30;12.70;99.90
19999;DHT22;10160;50.926;4.374;2022-12-20T05:24:14;12.70;99.90
19999;DHT22;10160;50.926;4.374;2022-12-20T05:26:58;12.60;99.90
19999;DHT22;10160;50.926;4.374;2022-12-20T05:29:24;12.60;99.90
19999;DHT22;10160;50.926;4.374;2022-12-20T05:31:50;12.60;99.90
19999;DHT22;10160;50.926;4.374;2022-12-20T05:34:16;12.70;99.90
19999;DHT22;10160;50.926;4.374;2022-12-20T05:36:41;12.70;99.90
19999;DHT22;10160;50.926;4.374;2022-12-20T05:39:07;12.70;99.90
19999;DHT22;10160;50.926;4.374;2022-12-20T05:41:33;12.70;99.90
19999;DHT22;10160;50.926;4.374;2022-12-20T05:43:59;12.70;99.90
19999;DHT22;10160;50.926;4.374;2022-12-20T05:46:25;12.70;99.90
19999;DHT22;10160;50.926;4.374;2022-12-20T05:48:51;12.80;99.90
19999;DHT22;10160;50.926;4.374;2022-12-20T05:51:16;12.80;99.90
19999;DHT22;10160;50.926;4.374;2022-12-20T05:53:42;12.70;99.90
19999;DHT22;10160;50.926;4.374;2022-12-20T05:56:08;12.60;99.90
19999;DHT22;10160;50.926;4.374;2022-12-20T05:58:33;12.70;99.90
19999;DHT22;10160;50.926;4.374;2022-12-20T06:01:03;12.70;99.90
19999;DHT22;10160;50.926;4.374;2022-12-20T06:03:29;12.80;99.90
19999;DHT22;10160;50.926;4.374;2022-12-20T06:05:55;12.70;99.90
19999;DHT22;10160;50.926;4.374;2022-12-20T06:08:21;12.80;99.90
19999;DHT22;10160;50.926;4.374;2022-12-20T06:10:48;12.80;99.90
19999;DHT22;10160;50.926;4.374;2022-12-20T06:13:14;12.90;99.90
19999;DHT22;10160;50.926;4.374;2022-12-20T06:15:40;12.90;99.90
19999;DHT22;10160;50.926;4.374;2022-12-20T06:18:06;13.00;99.90
19999;DHT22;10160;50.926;4.374;2022-12-20T06:20:33;12.90;99.90
19999;DHT22;10160;50.926;4.374;2022-12-20T06:22:58;12.90;99.90
19999;DHT22;10160;50.926;4.374;2022-12-20T06:25:24;12.90;99.90
19999;DHT22;10160;50.926;4.374;2022-12-20T06:27:50;13.00;99.90
19999;DHT22;10160;50.926;4.374;2022-12-20T06:30:16;12.90;99.90
19999;DHT22;10160;50.926;4.374;2022-12-20T06:32:42;13.00;99.90
19999;DHT22;10160;50.926;4.374;2022-12-20T06:35:08;13.00;99.90
19999;DHT22;10160;50.926;4.374;2022-12-20T06:37:34;13.10;99.90
19999;DHT22;10160;50.926;4.374;2022-12-20T06:40:01;13.10;99.90
19999;DHT22;10160;50.926;4.374;2022-12-20T06:42:27;13.10;99.90
19999;DHT22;10160;50.926;4.374;2022-12-20T06:44:52;13.10;99.90
19999;DHT22;10160;50.926;4.374;2022-12-20T06:47:18;13.10;99.90
19999;DHT22;10160;50.926;4.374;2022-12-20T06:49:43;13.20;99.90
19999;DHT22;10160;50.926;4.374;2022-12-20T06:52:09;13.10;99.90
19999;DHT22;10160;50.926;4.374;2022-12-20T06:54:35;13.20;99.90
19999;DHT22;10160;50.926;4.374;2022-12-20T06:57:00;13.20;99.90
19999;DHT22;10160;50.926;4.374;2022-12-20T06:59:26;13.20;99.90
19999;DHT22;10160;50.926;4.374;2022-12-20T07:01:52;13.20;99.90
19999;DHT22;10160;50.926;4.374;2022-12-20T07:04:18;13.20;99.90
19999;DHT22;10160;50.926;4.374;2022-12-20T07:06:44;13.10;99.90
19999;DHT22;10160;50.926;4.374;2022-12-20T07:09:09;13.10;99.90
19999;DHT22;10160;50.926;4.374;2022-12-20T07:11:36;13.00;99.90
19999;DHT22;10160;50.926;4.374;2022-12-20T07:14:02;12.90;99.90
19999;DHT22;10160;50.926;4.374;2022-12-20T07:16:28;12.80;99.90
19999;DHT22;10160;50.926;4.374;2022-12-20T07:18:56;12.80;99.90
19999;DHT22;10160;50.926;4.374;2022-12-20T07:21:22;12.70;99.90
19999;DHT22;10160;50.926;4.374;2022-12-20T07:23:48;12.70;99.90
19999;DHT22;10160;50.926;4.374;2022-12-20T07:26:14;12.60;99.90
19999;DHT22;10160;50.926;4.374;2022-12-20T07:28:41;12.50;99.90
19999;DHT22;10160;50.926;4.374;2022-12-20T07:31:06;12.40;99.90
19999;DHT22;10160;50.926;4.374;2022-12-20T07:33:32;12.30;99.90
19999;DHT22;10160;50.926;4.374;2022-12-20T07:36:03;12.30;99.90
19999;DHT22;10160;50.926;4.374;2022-12-20T07:38:29;12.20;99.90
19999;DHT22;10160;50.926;4.374;2022-12-20T07:40:54;12.20;99.90
19999;DHT22;10160;50.926;4.374;2022-12-20T07:43:20;12.00;99.90
19999;DHT22;10160;50.926;4.374;2022-12-20T07:45:46;11.90;99.90
19999;DHT22;10160;50.926;4.374;2022-12-20T07:48:12;11.90;99.90
19999;DHT22;10160;50.926;4.374;2022-12-20T07:50:39;11.80;99.90
19999;DHT22;10160;50.926;4.374;2022-12-20T07:53:06;11.80;99.90
19999;DHT22;10160;50.926;4.374;2022-12-20T07:55:33;11.70;99.90
19999;DHT22;10160;50.926;4.374;2022-12-20T07:58:05;11.60;99.90
19999;DHT22;10160;50.926;4.374;2022-12-20T08:00:31;11.60;99.90
19999;DHT22;10160;50.926;4.374;2022-12-20T08:05:26;11.40;99.90
19999;DHT22;10160;50.926;4.374;2022-12-20T08:07:53;11.50;99.90
19999;DHT22;10160;50.926;4.374;2022-12-20T08:10:20;11.50;99.90
19999;DHT22;10160;50.926;4.374;2022-12-20T08:12:47;11.60;99.90
19999;DHT22;10160;50.926;4.374;2022-12-20T08:15:14;11.50;99.90
19999;DHT22;10160;50.926;4.374;2022-12-20T08:17:39;11.50;99.90
19999;DHT22;10160;50.926;4.374;2022-12-20T08:20:06;11.50;99.90
19999;DHT22;10160;50.926;4.374;2022-12-20T08:22:33;11.40;99.90
19999;DHT22;10160;50.926;4.374;2022-12-20T08:25:00;11.50;99.90
19999;DHT22;10160;50.926;4.374;2022-12-20T08:27:26;11.50;99.90
19999;DHT22;10160;50.926;4.374;2022-12-20T08:29:51;11.50;99.90
19999;DHT22;10160;50.926;4.374;2022-12-20T08:32:17;11.50;99.90
19999;DHT22;10160;50.926;4.374;2022-12-20T08:34:43;11.50;99.90
19999;DHT22;10160;50.926;4.374;2022-12-20T08:37:08;11.50;99.90
19999;DHT22;10160;50.926;4.374;2022-12-20T08:39:34;11.40;99.90
19999;DHT22;10160;50.926;4.374;2022-12-20T08:42:00;11.50;99.90
19999;DHT22;10160;50.926;4.374;2022-12-20T08:44:25;11.40;99.90
19999;DHT22;10160;50.926;4.374;2022-12-20T08:46:51;11.50;99.90
19999;DHT22;10160;50.926;4.374;2022-12-20T08:49:18;11.50;99.90
19999;DHT22;10160;50.926;4.374;2022-12-20T08:51:44;11.50;99.90
19999;DHT22;10160;50.926;4.374;2022-12-20T08:54:09;11.60;99.90
19999;DHT22;10160;50.926;4.374;2022-12-20T08:56:35;11.60;99.90
19999;DHT22;10160;50.926;4.374;2022-12-20T08:59:01;11.60;99.90
19999;DHT22;10160;50.926;4.374;2022-12-20T09:01:26;11.80;99.90
19999;DHT22;10160;50.926;4.374;2022-12-20T09:03:54;11.70;99.90
19999;DHT22;10160;50.926;4.374;2022-12-20T09:06:21;11.80;99.90
19999;DHT22;10160;50.926;4.374;2022-12-20T09:08:47;11.70;99.90
19999;DHT22;10160;50.926;4.374;2022-12-20T09:11:18;11.70;99.90
19999;DHT22;10160;50.926;4.374;2022-12-20T09:13:45;11.60;99.90
19999;DHT22;10160;50.926;4.374;2022-12-20T09:16:12;11.50;99.90
19999;DHT22;10160;50.926;4.374;2022-12-20T09:18:38;11.50;99.90
19999;DHT22;10160;50.926;4.374;2022-12-20T09:21:05;11.40;99.90
19999;DHT22;10160;50.926;4.374;2022-12-20T09:23:31;11.40;99.90
19999;DHT22;10160;50.926;4.374;2022-12-20T09:26:10;11.50;99.90
19999;DHT22;10160;50.926;4.374;2022-12-20T09:28:36;11.60;99.90
19999;DHT22;10160;50.926;4.374;2022-12-20T09:31:07;11.60;99.90
19999;DHT22;10160;50.926;4.374;2022-12-20T09:33:34;11.60;99.90
19999;DHT22;10160;50.926;4.374;2022-12-20T09:36:00;11.60;99.90
19999;DHT22;10160;50.926;4.374;2022-12-20T09:38:26;11.70;99.90
19999;DHT22;10160;50.926;4.374;2022-12-20T09:41:00;11.60;99.90
19999;DHT22;10160;50.926;4.374;2022-12-20T09:43:26;11.70;99.90
19999;DHT22;10160;50.926;4.374;2022-12-20T09:46:13;11.60;99.90
19999;DHT22;10160;50.926;4.374;2022-12-20T09:48:39;11.70;99.90
19999;DHT22;10160;50.926;4.374;2022-12-20T09:56:35;11.60;99.90
19999;DHT22;10160;50.926;4.374;2022-12-20T09:59:10;11.50;99.90
19999;DHT22;10160;50.926;4.374;2022-12-20T10:01:37;11.50;99.90
19999;DHT22;10160;50.926;4.374;2022-12-20T10:04:06;11.60;99.90
19999;DHT22;10160;50.926;4.374;2022-12-20T10:09:54;11.60;99.90
19999;DHT22;10160;50.926;4.374;2022-12-20T10:15:25;11.50;99.90
19999;DHT22;10160;50.926;4.374;2022-12-20T10:17:56;11.40;99.90
19999;DHT22;10160;50.926;4.374;2022-12-20T10:23:08;11.40;99.90
19999;DHT22;10160;50.926;4.374;2022-12-20T10:25:35;11.50;99.90
19999;DHT22;10160;50.926;4.374;2022-12-20T10:28:04;11.50;99.90
19999;DHT22;10160;50.926;4.374;2022-12-20T10:30:35;11.40;99.90
19999;DHT22;10160;50.926;4.374;2022-12-20T10:33:01;11.50;99.90
19999;DHT22;10160;50.926;4.374;2022-12-20T10:40:32;11.60;99.90
19999;DHT22;10160;50.926;4.374;2022-12-20T10:43:00;11.60;99.90
19999;DHT22;10160;50.926;4.374;2022-12-20T10:45:36;11.60;99.90
19999;DHT22;10160;50.926;4.374;2022-12-20T10:53:33;11.60;99.90
19999;DHT22;10160;50.926;4.374;2022-12-20T10:58:38;11.50;99.90
19999;DHT22;10160;50.926;4.374;2022-12-20T11:01:14;11.50;99.90
19999;DHT22;10160;50.926;4.374;2022-12-20T11:03:55;11.50;99.90
19999;DHT22;10160;50.926;4.374;2022-12-20T11:06:25;11.50;99.90
19999;DHT22;10160;50.926;4.374;2022-12-20T11:08:51;11.40;99.90
19999;DHT22;10160;50.926;4.374;2022-12-20T11:11:22;11.50;99.90
19999;DHT22;10160;50.926;4.374;2022-12-20T11:13:50;11.50;99.90
19999;DHT22;10160;50.926;4.374;2022-12-20T11:16:36;11.50;99.90
19999;DHT22;10160;50.926;4.374;2022-12-20T11:28:07;11.50;99.90
19999;DHT22;10160;50.926;4.374;2022-12-20T11:42:03;11.40;99.90
19999;DHT22;10160;50.926;4.374;2022-12-20T11:52:58;11.30;99.90
19999;DHT22;10160;50.926;4.374;2022-12-20T11:55:33;11.30;99.90
19999;DHT22;10160;50.926;4.374;2022-12-20T12:00:26;11.30;99.90
19999;DHT22;10160;50.926;4.374;2022-12-20T12:02:58;11.30;99.90
19999;DHT22;10160;50.926;4.374;2022-12-20T12:05:40;11.20;99.90
19999;DHT22;10160;50.926;4.374;2022-12-20T12:08:16;11.20;99.90
19999;DHT22;10160;50.926;4.374;2022-12-20T12:10:59;11.20;99.90
19999;DHT22;10160;50.926;4.374;2022-12-20T12:13:28;11.20;99.90
19999;DHT22;10160;50.926;4.374;2022-12-20T12:16:17;11.20;99.90
19999;DHT22;10160;50.926;4.374;2022-12-20T12:18:44;11.10;99.90
19999;DHT22;10160;50.926;4.374;2022-12-20T12:21:21;11.10;99.90
19999;DHT22;10160;50.926;4.374;2022-12-20T12:26:33;11.10;99.90
19999;DHT22;10160;50.926;4.374;2022-12-20T12:29:14;11.10;99.90
19999;DHT22;10160;50.926;4.374;2022-12-20T12:31:49;11.10;99.90
19999;DHT22;10160;50.926;4.374;2022-12-20T12:40:35;11.10;99.90
19999;DHT22;10160;50.926;4.374;2022-12-20T12:45:50;11.20;99.90
19999;DHT22;10160;50.926;4.374;2022-12-20T12:48:47;11.20;99.90
19999;DHT22;10160;50.926;4.374;2022-12-20T12:51:26;11.30;99.90
19999;DHT22;10160;50.926;4.374;2022-12-20T12:54:01;11.20;99.90
19999;DHT22;10160;50.926;4.374;2022-12-20T12:56:29;11.20;99.90
19999;DHT22;10160;50.926;4.374;2022-12-20T13:01:49;11.20;99.90
19999;DHT22;10160;50.926;4.374;2022-12-20T13:09:40;11.20;99.90
19999;DHT22;10160;50.926;4.374;2022-12-20T13:17:58;11.10;99.90
19999;DHT22;10160;50.926;4.374;2022-12-20T13:20:29;11.10;99.90
19999;DHT22;10160;50.926;4.374;2022-12-20T13:25:32;11.10;99.90
19999;DHT22;10160;50.926;4.374;2022-12-20T13:33:23;11.10;99.90
19999;DHT22;10160;50.926;4.374;2022-12-20T13:35:58;11.10;99.90
19999;DHT22;10160;50.926;4.374;2022-12-20T13:43:43;11.10;99.90
19999;DHT22;10160;50.926;4.374;2022-12-20T13:48:51;11.10;99.90
19999;DHT22;10160;50.926;4.374;2022-12-20T13:51:26;11.10;99.90
19999;DHT22;10160;50.926;4.374;2022-12-20T13:54:06;11.00;99.90
19999;DHT22;10160;50.926;4.374;2022-12-20T13:56:43;11.10;99.90
19999;DHT22;10160;50.926;4.374;2022-12-20T13:59:20;11.10;99.90
19999;DHT22;10160;50.926;4.374;2022-12-20T14:01:51;11.10;99.90
19999;DHT22;10160;50.926;4.374;2022-12-20T14:04:18;11.10;99.90
19999;DHT22;10160;50.926;4.374;2022-12-20T14:06:56;11.10;99.90
19999;DHT22;10160;50.926;4.374;2022-12-20T14:09:36;11.10;99.90
19999;DHT22;10160;50.926;4.374;2022-12-20T14:12:11;11.10;99.90
19999;DHT22;10160;50.926;4.374;2022-12-20T14:14:42;11.20;99.90
19999;DHT22;10160;50.926;4.374;2022-12-20T14:17:15;11.10;99.90
19999;DHT22;10160;50.926;4.374;2022-12-20T14:19:42;11.20;99.90
19999;DHT22;10160;50.926;4.374;2022-12-20T14:22:10;11.10;99.90
19999;DHT22;10160;50.926;4.374;2022-12-20T14:24:39;11.10;99.90
19999;DHT22;10160;50.926;4.374;2022-12-20T14:27:10;11.10;99.90
19999;DHT22;10160;50.926;4.374;2022-12-20T14:29:38;11.10;99.90
19999;DHT22;10160;50.926;4.374;2022-12-20T14:32:04;11.00;99.90
19999;DHT22;10160;50.926;4.374;2022-12-20T14:34:31;11.10;99.90
19999;DHT22;10160;50.926;4.374;2022-12-20T14:37:36;11.00;99.90
19999;DHT22;10160;50.926;4.374;2022-12-20T14:42:37;11.10;99.90
19999;DHT22;10160;50.926;4.374;2022-12-20T14:45:26;11.30;99.90
19999;DHT22;10160;50.926;4.374;2022-12-20T14:47:58;11.20;99.90
19999;DHT22;10160;50.926;4.374;2022-12-20T14:50:34;11.10;99.90
19999;DHT22;10160;50.926;4.374;2022-12-20T14:53:01;11.20;99.90
19999;DHT22;10160;50.926;4.374;2022-12-20T14:55:38;11.30;99.90
19999;DHT22;10160;50.926;4.374;2022-12-20T14:58:30;11.30;99.90
19999;DHT22;10160;50.926;4.374;2022-12-20T15:01:19;11.30;99.90
19999;DHT22;10160;50.926;4.374;2022-12-20T15:03:57;11.30;99.90
19999;DHT22;10160;50.926;4.374;2022-12-20T15:06:44;11.20;99.90
19999;DHT22;10160;50.926;4.374;2022-12-20T15:09:12;11.20;99.90
19999;DHT22;10160;50.926;4.374;2022-12-20T15:11:41;11.20;99.90
19999;DHT22;10160;50.926;4.374;2022-12-20T15:16:57;11.10;99.90
19999;DHT22;10160;50.926;4.374;2022-12-20T15:19:22;11.10;99.90
19999;DHT22;10160;50.926;4.374;2022-12-20T15:21:48;11.10;99.90
19999;DHT22;10160;50.926;4.374;2022-12-20T15:24:17;11.10;99.90
19999;DHT22;10160;50.926;4.374;2022-12-20T15:26:44;11.00;99.90
19999;DHT22;10160;50.926;4.374;2022-12-20T15:29:30;11.10;99.90
19999;DHT22;10160;50.926;4.374;2022-12-20T15:32:12;11.10;99.90
19999;DHT22;10160;50.926;4.374;2022-12-20T15:34:39;11.10;99.90
19999;DHT22;10160;50.926;4.374;2022-12-20T15:37:05;11.00;99.90
19999;DHT22;10160;50.926;4.374;2022-12-20T15:39:31;11.10;99.90
19999;DHT22;10160;50.926;4.374;2022-12-20T15:42:00;11.10;99.90
19999;DHT22;10160;50.926;4.374;2022-12-20T15:44:28;11.10;99.90
19999;DHT22;10160;50.926;4.374;2022-12-20T15:46:55;11.20;99.90
19999;DHT22;10160;50.926;4.374;2022-12-20T15:49:23;11.10;99.90
19999;DHT22;10160;50.926;4.374;2022-12-20T15:51:50;11.10;99.90
19999;DHT22;10160;50.926;4.374;2022-12-20T15:54:30;11.10;99.90
19999;DHT22;10160;50.926;4.374;2022-12-20T15:56:58;11.10;99.90
19999;DHT22;10160;50.926;4.374;2022-12-20T15:59:24;11.20;99.90
19999;DHT22;10160;50.926;4.374;2022-12-20T16:01:50;11.10;99.90
19999;DHT22;10160;50.926;4.374;2022-12-20T16:04:18;11.10;99.90
19999;DHT22;10160;50.926;4.374;2022-12-20T16:06:46;11.10;99.90
19999;DHT22;10160;50.926;4.374;2022-12-20T16:09:12;11.10;99.90
19999;DHT22;10160;50.926;4.374;2022-12-20T16:11:38;11.10;99.90
19999;DHT22;10160;50.926;4.374;2022-12-20T16:14:04;11.00;99.90
19999;DHT22;10160;50.926;4.374;2022-12-20T16:16:32;11.10;99.90
19999;DHT22;10160;50.926;4.374;2022-12-20T16:18:58;11.10;99.90
19999;DHT22;10160;50.926;4.374;2022-12-20T16:21:28;11.00;99.90
19999;DHT22;10160;50.926;4.374;2022-12-20T16:23:55;11.00;99.90
19999;DHT22;10160;50.926;4.374;2022-12-20T16:26:23;11.00;99.90
19999;DHT22;10160;50.926;4.374;2022-12-20T16:28:50;11.10;99.90
19999;DHT22;10160;50.926;4.374;2022-12-20T16:33:42;11.00;99.90
19999;DHT22;10160;50.926;4.374;2022-12-20T16:36:10;11.00;99.90
19999;DHT22;10160;50.926;4.374;2022-12-20T16:38:36;11.00;99.90
19999;DHT22;10160;50.926;4.374;2022-12-20T16:41:19;11.10;99.90
19999;DHT22;10160;50.926;4.374;2022-12-20T16:43:46;11.10;99.90
19999;DHT22;10160;50.926;4.374;2022-12-20T16:46:13;11.10;99.90
19999;DHT22;10160;50.926;4.374;2022-12-20T16:48:39;11.10;99.90
19999;DHT22;10160;50.926;4.374;2022-12-20T16:53:47;11.00;99.90
19999;DHT22;10160;50.926;4.374;2022-12-20T16:56:14;11.00;99.90
19999;DHT22;10160;50.926;4.374;2022-12-20T16:58:39;11.00;99.90
19999;DHT22;10160;50.926;4.374;2022-12-20T17:01:05;11.00;99.90
19999;DHT22;10160;50.926;4.374;2022-12-20T17:03:31;11.00;99.90
19999;DHT22;10160;50.926;4.374;2022-12-20T17:05:57;11.00;99.90
19999;DHT22;10160;50.926;4.374;2022-12-20T17:08:22;11.00;99.90
19999;DHT22;10160;50.926;4.374;2022-12-20T17:10:48;11.00;99.90
19999;DHT22;10160;50.926;4.374;2022-12-20T17:13:13;10.90;99.90
19999;DHT22;10160;50.926;4.374;2022-12-20T17:15:39;10.90;99.90
19999;DHT22;10160;50.926;4.374;2022-12-20T17:18:07;10.90;99.90
19999;DHT22;10160;50.926;4.374;2022-12-20T17:20:33;10.90;99.90
19999;DHT22;10160;50.926;4.374;2022-12-20T17:22:58;10.90;99.90
19999;DHT22;10160;50.926;4.374;2022-12-20T17:25:29;11.00;99.90
19999;DHT22;10160;50.926;4.374;2022-12-20T17:27:57;11.10;99.90
19999;DHT22;10160;50.926;4.374;2022-12-20T17:30:24;11.10;99.90
19999;DHT22;10160;50.926;4.374;2022-12-20T17:32:50;11.10;99.90
19999;DHT22;10160;50.926;4.374;2022-12-20T17:35:26;11.00;99.90
19999;DHT22;10160;50.926;4.374;2022-12-20T17:37:52;11.00;99.90
19999;DHT22;10160;50.926;4.374;2022-12-20T17:40:21;11.00;99.90
19999;DHT22;10160;50.926;4.374;2022-12-20T17:42:47;11.10;99.90
19999;DHT22;10160;50.926;4.374;2022-12-20T17:45:26;11.10;99.90
19999;DHT22;10160;50.926;4.374;2022-12-20T17:47:53;11.10;99.90
19999;DHT22;10160;50.926;4.374;2022-12-20T17:50:19;11.10;99.90